Time;durP1;ratioP1;P1;durP2;ratioP2;P2;SDS_P1;SDS_P2;PMS_P1;PMS_P2;Temp;Humidity;BMP_temperature;BMP_pressure;BME280_temperature;BME280_humidity;BME280_pressure;Samples;Min_cycle;Max_cycle;Signal;HPM_P1;HPM_P2
2021/12/13 00:01:19;;;;;;;32.03;18.20;;;;;;;2.39;68.89;93743.59;2068163;69;20144;-69
2021/12/13 00:03:44;;;;;;;31.45;17.67;;;;;;;2.47;68.68;93741.66;2068088;69;20160;-73
2021/12/13 00:06:15;;;;;;;31.20;17.55;;;;;;;2.45;68.78;93746.28;2068055;69;20151;-73
2021/12/13 00:08:47;;;;;;;32.28;17.60;;;;;;;2.50;68.42;93740.59;2067977;69;20588;-72
2021/12/13 00:11:25;;;;;;;32.47;17.42;;;;;;;2.43;69.18;93732.91;2068098;69;20128;-72
2021/12/13 00:13:59;;;;;;;30.75;16.98;;;;;;;2.45;69.49;93733.13;2067956;69;20267;-72
2021/12/13 00:16:29;;;;;;;33.53;17.17;;;;;;;2.40;70.02;93736.00;2068057;69;20168;-70
2021/12/13 00:19:01;;;;;;;32.47;17.85;;;;;;;2.39;69.84;93742.84;2068136;69;20181;-70
2021/12/13 00:21:41;;;;;;;34.08;18.15;;;;;;;2.50;69.52;93740.59;2067835;69;20532;-69
2021/12/13 00:24:12;;;;;;;30.00;17.67;;;;;;;2.49;69.15;93741.91;2068091;69;20149;-68
2021/12/13 00:26:41;;;;;;;34.50;17.45;;;;;;;2.46;69.31;93734.63;2067897;69;20527;-70
2021/12/13 00:29:19;;;;;;;30.42;17.08;;;;;;;2.51;69.17;93749.69;2067966;69;20148;-72
2021/12/13 00:31:57;;;;;;;31.58;16.70;;;;;;;2.53;68.75;93741.59;2067962;69;20221;-72
2021/12/13 00:34:43;;;;;;;32.95;18.08;;;;;;;2.45;69.56;93735.16;2068120;69;20145;-68
2021/12/13 00:37:18;;;;;;;33.97;17.98;;;;;;;2.50;69.06;93737.81;2067834;69;20145;-70
2021/12/13 00:39:50;;;;;;;29.92;17.30;;;;;;;2.25;70.30;93736.53;2068033;69;20128;-69
2021/12/13 00:42:16;;;;;;;29.53;17.33;;;;;;;2.37;69.43;93740.59;2068032;69;20251;-69
2021/12/13 00:44:47;;;;;;;28.67;16.20;;;;;;;2.51;68.92;93742.09;2068028;69;20264;-69
2021/12/13 00:47:25;;;;;;;31.00;17.37;;;;;;;2.56;68.73;93740.50;2068501;69;20141;-71
2021/12/13 00:50:00;;;;;;;28.25;16.77;;;;;;;2.60;68.65;93748.53;2068473;69;20602;-69
2021/12/13 00:52:30;;;;;;;31.63;17.92;;;;;;;2.60;68.89;93749.28;2065146;69;20283;-68
2021/12/13 00:54:56;;;;;;;30.70;17.15;;;;;;;2.57;68.88;93753.13;2068512;69;20160;-69
2021/12/13 00:57:27;;;;;;;33.33;16.83;;;;;;;2.57;69.42;93749.59;2068512;69;20639;-69
2021/12/13 01:00:04;;;;;;;32.33;17.45;;;;;;;2.55;69.36;93744.56;2068392;69;20591;-69
2021/12/13 01:02:39;;;;;;;31.25;18.08;;;;;;;2.37;70.16;93746.16;2068317;69;20235;-70
2021/12/13 01:05:11;;;;;;;29.27;17.25;;;;;;;2.48;69.57;93742.44;2068312;69;20334;-71
2021/12/13 01:08:11;;;;;;;30.77;17.73;;;;;;;2.56;69.33;93743.28;2068439;69;20197;-69
2021/12/13 01:10:40;;;;;;;30.55;17.58;;;;;;;2.54;68.93;93738.25;2068435;69;20167;-68
2021/12/13 01:13:19;;;;;;;29.42;17.23;;;;;;;2.54;69.26;93738.25;2068484;69;20179;-69
2021/12/13 01:16:15;;;;;;;27.42;17.35;;;;;;;2.29;70.42;93740.50;2068513;69;20668;-71
2021/12/13 01:19:28;;;;;;;28.10;16.90;;;;;;;2.53;69.96;93736.03;2068372;69;20141;-68
2021/12/13 01:25:36;;;;;;;31.92;16.92;;;;;;;2.51;69.97;93733.75;2067948;69;20137;-69
2021/12/13 01:28:20;;;;;;;29.92;17.38;;;;;;;2.55;69.75;93731.41;2068547;69;20152;-72
2021/12/13 01:30:57;;;;;;;30.48;17.00;;;;;;;2.64;68.93;93741.38;2068530;69;20228;-72
2021/12/13 01:33:26;;;;;;;31.83;17.40;;;;;;;2.71;68.54;93737.22;2068498;69;20160;-72
2021/12/13 01:35:54;;;;;;;33.00;17.13;;;;;;;2.59;69.27;93739.44;2068427;69;20247;-70
2021/12/13 01:38:32;;;;;;;30.23;16.08;;;;;;;2.35;70.84;93736.84;2068409;69;20156;-69
2021/12/13 01:41:08;;;;;;;30.60;17.02;;;;;;;2.53;69.68;93733.25;2068442;69;20160;-69
2021/12/13 01:43:38;;;;;;;30.23;16.67;;;;;;;2.60;69.79;93731.84;2068454;69;20137;-69
2021/12/13 01:46:03;;;;;;;28.83;17.05;;;;;;;2.71;69.01;93729.63;2068370;69;20179;-71
2021/12/13 01:48:39;;;;;;;31.85;16.63;;;;;;;2.66;69.46;93727.69;2068429;69;20214;-69
2021/12/13 01:51:10;;;;;;;28.30;17.45;;;;;;;2.56;70.43;93718.25;2068371;69;20290;-69
2021/12/13 01:53:47;;;;;;;26.58;15.40;;;;;;;2.70;69.34;93714.22;2068380;69;20512;-69
2021/12/13 01:59:30;;;;;;;25.38;15.75;;;;;;;2.73;69.63;93720.72;2068483;69;20172;-68
2021/12/13 02:02:20;;;;;;;26.95;15.50;;;;;;;2.74;69.42;93714.63;2068357;69;20227;-69
2021/12/13 02:04:57;;;;;;;25.40;12.95;;;;;;;2.53;69.71;93711.75;2068378;69;20291;-68
2021/12/13 02:07:25;;;;;;;24.52;14.88;;;;;;;2.75;68.67;93710.59;2068425;69;20149;-68
2021/12/13 02:09:51;;;;;;;23.50;14.45;;;;;;;2.77;69.43;93707.25;2065160;69;20176;-67
2021/12/13 02:12:19;;;;;;;25.30;15.05;;;;;;;2.72;70.22;93703.31;2068402;69;20159;-69
2021/12/13 02:16:56;;;;;;;23.58;14.10;;;;;;;2.77;69.94;93708.00;2068313;69;20607;-69
2021/12/13 02:17:40;;;;;;;23.65;14.57;;;;;;;2.71;70.17;93699.03;2068344;69;20216;-69
2021/12/13 02:20:15;;;;;;;22.67;13.30;;;;;;;2.43;71.48;93702.34;2068250;69;20616;-69
2021/12/13 02:22:44;;;;;;;29.67;13.57;;;;;;;2.65;70.00;93701.16;2068341;69;20159;-68
2021/12/13 02:25:25;;;;;;;21.85;13.68;;;;;;;2.59;70.76;93702.56;2068427;69;20149;-69
2021/12/13 02:27:58;;;;;;;27.58;13.38;;;;;;;2.57;70.75;93699.53;2068403;69;20140;-69
2021/12/13 02:30:39;;;;;;;21.25;13.00;;;;;;;2.69;70.20;93698.06;2068324;69;20160;-69
2021/12/13 02:33:09;;;;;;;22.15;12.98;;;;;;;2.71;70.09;93704.59;2068512;69;20564;-72
2021/12/13 02:35:39;;;;;;;24.15;13.65;;;;;;;2.61;70.56;93694.41;2068471;69;20132;-71
2021/12/13 02:38:07;;;;;;;25.08;13.75;;;;;;;2.71;70.14;93699.03;2068333;69;20144;-70
2021/12/13 02:40:34;;;;;;;19.75;12.02;;;;;;;2.60;71.24;93696.44;2065141;69;20608;-72
2021/12/13 02:43:00;;;;;;;21.63;12.77;;;;;;;2.78;70.22;93701.16;2068268;69;20140;-69
2021/12/13 02:45:42;;;;;;;22.48;12.98;;;;;;;2.81;70.45;93699.34;2064883;69;20239;-72
2021/12/13 02:48:24;;;;;;;20.95;12.88;;;;;;;2.85;70.08;93687.91;2069845;69;20140;-70
2021/12/13 02:51:02;;;;;;;23.23;12.47;;;;;;;2.84;70.36;93697.50;2071546;69;20187;-72
2021/12/13 02:53:37;;;;;;;21.48;12.90;;;;;;;2.84;70.19;93695.50;2071684;69;20155;-72
2021/12/13 02:56:03;;;;;;;19.75;12.65;;;;;;;2.88;70.07;93695.88;2071721;69;20210;-70
2021/12/13 02:58:30;;;;;;;19.10;11.52;;;;;;;2.90;69.16;93687.03;2071714;69;20156;-71
2021/12/13 03:01:05;;;;;;;22.00;12.45;;;;;;;2.90;70.02;93695.38;2071600;69;20597;-73
2021/12/13 03:03:35;;;;;;;20.80;11.70;;;;;;;2.92;70.27;93690.75;2068383;69;20140;-72
2021/12/13 03:06:05;;;;;;;20.50;12.68;;;;;;;2.91;69.79;93700.38;2071507;69;20206;-69
2021/12/13 03:08:50;;;;;;;19.45;11.98;;;;;;;2.84;70.79;93695.50;2071493;69;20535;-68
2021/12/13 03:11:23;;;;;;;19.90;12.57;;;;;;;2.87;70.77;93682.53;2071634;69;20175;-69
2021/12/13 03:13:57;;;;;;;21.63;13.07;;;;;;;2.89;71.26;93686.28;2071557;69;20592;-69
2021/12/13 03:16:28;;;;;;;19.58;11.68;;;;;;;2.93;71.21;93691.50;2068376;69;20179;-68
2021/12/13 03:19:10;;;;;;;22.88;12.63;;;;;;;2.97;71.01;93678.00;2071460;69;20206;-69
2021/12/13 03:22:13;;;;;;;21.55;12.25;;;;;;;2.95;71.03;93675.78;2071691;69;20179;-70
2021/12/13 03:25:06;;;;;;;21.67;12.43;;;;;;;3.01;70.34;93681.22;2071652;69;20171;-70
2021/12/13 03:27:55;;;;;;;20.63;12.02;;;;;;;2.89;71.89;93685.53;2071449;69;20144;-73
2021/12/13 03:30:55;;;;;;;19.05;11.13;;;;;;;2.95;71.93;93681.34;2071695;69;20280;-72
2021/12/13 03:33:30;;;;;;;15.00;9.55;;;;;;;3.00;72.51;93674.16;2071660;69;20153;-73
2021/12/13 03:36:00;;;;;;;10.65;6.88;;;;;;;2.90;73.55;93676.66;2071782;69;20172;-73
2021/12/13 03:38:32;;;;;;;15.05;9.52;;;;;;;2.94;73.34;93674.28;2068346;69;20167;-73
2021/12/13 03:41:01;;;;;;;17.45;10.38;;;;;;;2.77;73.53;93669.06;2071798;69;20148;-72
2021/12/13 03:43:50;;;;;;;18.58;10.50;;;;;;;2.86;74.10;93662.31;2071866;69;20128;-72
2021/12/13 03:46:18;;;;;;;17.10;10.52;;;;;;;2.90;73.33;93665.53;2071497;69;20624;-72
2021/12/13 03:48:47;;;;;;;16.65;10.30;;;;;;;2.98;72.72;93671.94;2071609;69;20140;-73
2021/12/13 03:51:22;;;;;;;18.27;10.80;;;;;;;2.85;73.76;93665.66;2071578;69;20233;-73
2021/12/13 03:53:50;;;;;;;19.00;10.38;;;;;;;2.96;72.17;93676.53;2068346;69;20212;-73
2021/12/13 03:56:23;;;;;;;17.73;10.50;;;;;;;3.06;72.68;93666.44;2071588;69;20171;-71
2021/12/13 03:58:54;;;;;;;17.27;9.95;;;;;;;3.05;72.97;93667.72;2068271;69;20159;-71
2021/12/13 04:01:22;;;;;;;18.77;10.10;;;;;;;2.96;73.43;93666.16;2071602;69;20193;-70
2021/12/13 04:03:51;;;;;;;15.77;9.55;;;;;;;3.05;73.09;93664.94;2071703;69;20140;-70
2021/12/13 04:06:18;;;;;;;17.05;10.15;;;;;;;3.01;73.37;93667.31;2071453;69;20144;-70
2021/12/13 04:08:49;;;;;;;17.23;10.13;;;;;;;3.07;74.02;93673.53;2071560;69;20132;-71
2021/12/13 04:11:15;;;;;;;18.23;9.80;;;;;;;2.91;75.04;93669.78;2071710;69;20283;-71
2021/12/13 04:13:46;;;;;;;17.02;9.55;;;;;;;3.05;73.83;93667.72;2071670;69;20140;-72
2021/12/13 04:16:34;;;;;;;17.80;9.85;;;;;;;3.15;73.42;93668.03;2071686;69;20243;-71
2021/12/13 04:19:07;;;;;;;20.00;12.13;;;;;;;3.14;73.67;93663.75;2068175;69;20183;-72
2021/12/13 04:21:42;;;;;;;22.30;13.10;;;;;;;3.13;73.48;93665.03;2071702;69;20205;-72
2021/12/13 04:24:15;;;;;;;14.80;9.70;;;;;;;3.00;75.05;93668.59;2072067;69;20218;-72
2021/12/13 04:26:43;;;;;;;;;;;;;;;3.27;72.79;93669.28;2072246;69;20144;-72
2021/12/13 04:29:21;;;;;;;14.65;8.55;;;;;;;3.28;71.93;93671.50;2072158;69;20076;-71
2021/12/13 04:31:49;;;;;;;16.35;8.95;;;;;;;3.23;73.45;93663.31;2072028;69;20140;-72
2021/12/13 04:34:16;;;;;;;12.63;8.55;;;;;;;3.27;72.41;93666.50;2072011;69;20156;-70
2021/12/13 04:36:46;;;;;;;14.50;9.23;;;;;;;3.24;72.72;93670.34;2071909;69;20147;-72
2021/12/13 04:39:32;;;;;;;16.35;10.95;;;;;;;3.08;74.25;93669.44;2071988;69;20160;-71
2021/12/13 04:42:01;;;;;;;17.67;10.25;;;;;;;3.22;72.74;93673.69;2068654;69;20145;-71
2021/12/13 04:44:43;;;;;;;15.45;9.82;;;;;;;3.25;72.94;93671.84;2071953;69;20215;-72
2021/12/13 04:47:16;;;;;;;17.30;9.80;;;;;;;3.31;72.82;93669.69;2072028;69;20196;-71
2021/12/13 04:49:59;;;;;;;15.77;10.38;;;;;;;3.25;74.14;93675.41;2072073;69;20243;-72
2021/12/13 04:52:25;;;;;;;13.73;10.18;;;;;;;3.21;74.44;93668.66;2072096;69;20166;-71
2021/12/13 04:54:54;;;;;;;12.90;8.80;;;;;;;3.31;73.35;93673.22;2072097;69;20504;-69
2021/12/13 04:57:21;;;;;;;13.15;8.18;;;;;;;3.31;73.87;93678.78;2071954;69;20236;-72
2021/12/13 04:59:53;;;;;;;11.13;7.20;;;;;;;3.26;73.86;93673.34;2071942;69;21035;-71
2021/12/13 05:02:19;;;;;;;14.23;7.13;;;;;;;3.31;74.06;93678.06;2072102;69;20261;-72
2021/12/13 05:04:48;;;;;;;8.52;5.40;;;;;;;3.39;73.34;93676.09;2071844;69;20151;-72
2021/12/13 05:07:14;;;;;;;8.57;5.40;;;;;;;3.36;73.59;93671.59;2071854;69;20132;-70
2021/12/13 05:09:40;;;;;;;9.77;5.40;;;;;;;3.42;73.61;93680.56;2072082;69;20140;-69
2021/12/13 05:12:14;;;;;;;13.07;6.68;;;;;;;3.10;75.59;93678.00;2072042;69;20174;-70
2021/12/13 05:14:45;;;;;;;11.55;6.82;;;;;;;3.27;74.45;93670.03;2071948;69;20148;-69
2021/12/13 05:17:36;;;;;;;13.45;7.90;;;;;;;3.39;73.20;93666.97;2071957;69;20148;-69
2021/12/13 05:20:21;;;;;;;14.18;7.95;;;;;;;3.40;74.42;93674.06;2066434;69;20155;-69
2021/12/13 05:22:52;;;;;;;11.93;6.60;;;;;;;3.35;74.89;93672.16;2071992;69;20718;-70
2021/12/13 05:25:43;;;;;;;8.73;5.53;;;;;;;3.42;74.30;93679.81;2071967;69;20619;-69
2021/12/13 05:28:19;;;;;;;6.28;4.25;;;;;;;3.41;74.83;93681.88;2071815;69;20599;-72
2021/12/13 05:30:59;;;;;;;5.32;3.00;;;;;;;3.35;75.20;93680.50;2071953;69;20190;-70
2021/12/13 05:33:31;;;;;;;4.80;2.97;;;;;;;3.38;75.30;93682.19;2071905;69;20659;-71
2021/12/13 05:36:01;;;;;;;4.78;2.80;;;;;;;3.42;74.35;93680.56;2068524;69;20596;-71
2021/12/13 05:38:43;;;;;;;13.10;6.13;;;;;;;3.20;76.75;93684.59;2068470;69;20136;-71
2021/12/13 05:41:12;;;;;;;17.13;7.70;;;;;;;3.29;76.08;93683.41;2071874;69;20180;-71
2021/12/13 05:43:58;;;;;;;16.55;7.88;;;;;;;3.42;74.57;93688.91;2071646;69;20133;-72
2021/12/13 05:46:34;;;;;;;13.63;7.45;;;;;;;3.41;74.28;93686.69;2071844;69;20532;-72
2021/12/13 05:49:03;;;;;;;14.45;6.53;;;;;;;3.35;75.15;93686.81;2071985;69;20164;-72
2021/12/13 05:51:45;;;;;;;13.30;6.85;;;;;;;3.38;74.80;93685.72;2071728;69;20286;-71
2021/12/13 05:54:17;;;;;;;14.73;7.15;;;;;;;3.39;74.73;93692.81;2071881;69;20258;-70
2021/12/13 05:57:12;;;;;;;14.30;6.97;;;;;;;3.29;74.95;93695.28;2068521;69;20221;-71
2021/12/13 05:59:52;;;;;;;10.90;6.30;;;;;;;3.31;75.41;93705.88;2071628;69;20600;-70
2021/12/13 06:02:30;;;;;;;13.68;7.10;;;;;;;3.40;74.45;93699.13;2071939;69;20154;-70
2021/12/13 06:05:07;;;;;;;17.80;7.60;;;;;;;3.38;74.94;93705.22;2071724;69;20160;-70
2021/12/13 06:07:40;;;;;;;18.15;7.65;;;;;;;3.23;76.24;93705.78;2071948;69;20241;-70
2021/12/13 06:10:13;;;;;;;16.65;8.20;;;;;;;3.17;74.79;93707.94;2071823;69;20171;-71
2021/12/13 06:12:47;;;;;;;15.05;7.20;;;;;;;3.27;74.30;93708.25;2071831;69;20219;-70
2021/12/13 06:15:16;;;;;;;18.67;7.70;;;;;;;3.29;75.19;93716.78;2071969;69;20136;-70
2021/12/13 06:18:05;;;;;;;15.07;7.72;;;;;;;3.34;75.12;93706.81;2071764;69;20144;-70
2021/12/13 06:20:35;;;;;;;14.40;8.20;;;;;;;3.34;74.84;93704.78;2068944;69;20198;-71
2021/12/13 06:23:11;;;;;;;17.40;7.95;;;;;;;3.28;75.51;93718.84;2071887;69;20172;-70
2021/12/13 06:25:40;;;;;;;17.35;7.07;;;;;;;3.38;74.53;93719.13;2071800;69;20142;-71
2021/12/13 06:28:15;;;;;;;13.18;8.70;;;;;;;3.41;74.24;93717.31;2068455;69;20164;-69
2021/12/13 06:30:42;;;;;;;14.73;8.02;;;;;;;3.20;75.99;93717.25;2071905;69;20148;-70
2021/12/13 06:33:11;;;;;;;12.98;7.88;;;;;;;3.32;75.46;93726.84;2071823;69;20151;-69
2021/12/13 06:35:48;;;;;;;16.80;7.72;;;;;;;3.33;75.28;93727.59;2071628;69;20505;-69
2021/12/13 06:38:19;;;;;;;13.50;7.47;;;;;;;3.37;74.49;93725.97;2071740;69;20515;-72
2021/12/13 06:41:15;;;;;;;15.85;8.20;;;;;;;3.41;74.54;93734.75;2071745;69;20175;-72
2021/12/13 06:43:53;;;;;;;15.35;7.88;;;;;;;3.44;74.40;93735.72;2071744;69;20172;-71
2021/12/13 06:46:21;;;;;;;15.88;8.05;;;;;;;3.13;76.37;93748.53;2071712;69;20144;-73
2021/12/13 06:48:52;;;;;;;13.68;7.82;;;;;;;2.89;76.71;93746.72;2071730;69;20203;-72
2021/12/13 06:51:20;;;;;;;12.98;7.80;;;;;;;3.16;75.49;93753.00;2071689;69;20228;-70
2021/12/13 06:54:02;;;;;;;15.90;7.78;;;;;;;3.28;74.67;93754.28;2071730;69;20152;-71
2021/12/13 06:56:31;;;;;;;13.90;7.40;;;;;;;3.29;73.49;93752.97;2071833;69;20152;-71
2021/12/13 06:58:59;;;;;;;19.08;7.70;;;;;;;3.14;74.32;93763.94;2071714;69;20144;-71
2021/12/13 07:01:32;;;;;;;16.50;8.18;;;;;;;3.14;74.06;93761.88;2071776;69;20156;-72
2021/12/13 07:04:04;;;;;;;14.13;8.02;;;;;;;3.27;73.58;93761.13;2071659;69;20493;-72
2021/12/13 07:06:31;;;;;;;13.00;7.72;;;;;;;3.33;73.43;93764.53;2071626;69;20598;-72
2021/12/13 07:09:21;;;;;;;18.42;8.95;;;;;;;3.29;73.71;93775.25;2071812;69;20164;-72
2021/12/13 07:11:55;;;;;;;16.70;8.93;;;;;;;3.30;74.03;93768.41;2071743;69;20186;-70
2021/12/13 07:14:36;;;;;;;14.38;8.68;;;;;;;3.25;74.41;93775.59;2071698;69;20144;-71
2021/12/13 07:17:27;;;;;;;16.33;8.70;;;;;;;3.26;74.63;93774.28;2071715;69;20152;-71
2021/12/13 07:19:53;;;;;;;16.50;8.60;;;;;;;3.30;74.55;93773.97;2071680;69;20152;-71
2021/12/13 07:22:24;;;;;;;13.70;8.27;;;;;;;3.36;73.73;93774.59;2071538;69;20140;-73
2021/12/13 07:25:10;;;;;;;16.67;9.00;;;;;;;3.37;74.03;93775.34;2071829;69;20144;-72
2021/12/13 07:27:42;;;;;;;17.98;8.75;;;;;;;3.38;73.91;93774.81;2071768;69;20141;-73
2021/12/13 07:30:25;;;;;;;17.77;9.70;;;;;;;3.35;73.94;93784.25;2071799;69;20148;-72
2021/12/13 07:32:59;;;;;;;18.55;9.10;;;;;;;3.37;73.74;93790.00;2070768;69;20577;-72
2021/12/13 07:35:35;;;;;;;18.27;8.82;;;;;;;3.44;73.16;93789.38;2069229;69;20144;-73
2021/12/13 07:38:07;;;;;;;15.90;8.77;;;;;;;3.37;73.53;93783.69;2068942;69;20202;-73
2021/12/13 07:40:42;;;;;;;18.10;9.57;;;;;;;3.18;74.59;93790.13;2068880;69;20168;-72
2021/12/13 07:43:31;;;;;;;18.25;9.48;;;;;;;3.33;74.33;93797.19;2070788;69;20262;-72
2021/12/13 07:46:03;;;;;;;20.38;9.30;;;;;;;3.52;73.00;93798.53;2071626;69;20144;-72
2021/12/13 07:48:35;;;;;;;23.33;10.70;;;;;;;3.54;73.47;93809.16;2071606;69;20235;-71
2021/12/13 07:51:00;;;;;;;23.15;13.27;;;;;;;3.59;73.34;93811.06;2071572;69;20148;-73
2021/12/13 07:53:35;;;;;;;23.27;12.15;;;;;;;3.31;74.23;93809.63;2071786;69;20160;-71
2021/12/13 07:56:02;;;;;;;24.15;11.48;;;;;;;3.41;74.41;93815.50;2071559;69;20151;-72
2021/12/13 07:58:36;;;;;;;27.35;15.35;;;;;;;3.48;74.10;93814.84;2071623;69;20180;-72
2021/12/13 08:01:18;;;;;;;30.55;15.88;;;;;;;3.36;75.07;93816.34;2071652;69;20146;-72
2021/12/13 08:03:48;;;;;;;29.90;12.38;;;;;;;3.24;74.84;93812.28;2071416;69;20541;-68
2021/12/13 08:06:14;;;;;;;23.02;12.25;;;;;;;3.45;74.08;93813.13;2071428;69;20621;-74
2021/12/13 08:08:53;;;;;;;20.15;12.35;;;;;;;3.60;73.26;93815.34;2071396;69;20143;-72
2021/12/13 08:11:34;;;;;;;24.05;12.65;;;;;;;3.56;73.12;93812.88;2071361;69;20214;-73
2021/12/13 08:13:59;;;;;;;21.83;11.13;;;;;;;3.50;73.35;93808.72;2071582;69;20136;-74
2021/12/13 08:16:32;;;;;;;21.92;12.60;;;;;;;3.37;74.03;93805.97;2071587;69;20132;-74
2021/12/13 08:19:14;;;;;;;23.83;13.57;;;;;;;3.49;74.37;93810.78;2071520;69;20242;-75
2021/12/13 08:21:44;;;;;;;25.00;13.38;;;;;;;3.62;74.19;93818.34;2071478;69;20141;-72
2021/12/13 08:24:24;;;;;;;24.85;13.50;;;;;;;3.70;74.11;93824.75;2071524;69;20274;-74
2021/12/13 08:26:56;;;;;;;32.47;16.17;;;;;;;3.49;75.04;93819.13;2071715;69;20140;-76
2021/12/13 08:29:27;;;;;;;27.98;15.35;;;;;;;3.74;74.52;93822.38;2071572;69;20286;-73
2021/12/13 08:31:56;;;;;;;30.17;15.98;;;;;;;3.86;73.85;93822.91;2071536;69;20197;-72
2021/12/13 08:34:33;;;;;;;35.35;18.38;;;;;;;3.96;73.67;93826.72;2070728;69;20243;-70
2021/12/13 08:37:09;;;;;;;31.75;17.60;;;;;;;4.04;73.60;93830.34;2069778;69;20648;-71
2021/12/13 08:39:37;;;;;;;32.05;17.50;;;;;;;4.15;72.43;93823.00;2071136;69;20172;-72
2021/12/13 08:42:23;;;;;;;38.78;19.35;;;;;;;3.85;74.79;93820.63;2071451;69;20156;-70
2021/12/13 08:44:59;;;;;;;44.50;17.45;;;;;;;4.20;73.79;93825.66;2071502;69;20137;-70
2021/12/13 08:47:50;;;;;;;54.75;27.52;;;;;;;4.47;72.82;93829.09;2071491;69;20232;-71
2021/12/13 08:50:31;;;;;;;37.92;19.25;;;;;;;4.64;72.45;93828.69;2067997;69;20660;-72
2021/12/13 08:53:02;;;;;;;34.83;17.77;;;;;;;4.52;72.21;93814.25;2068130;69;20393;-70
2021/12/13 08:55:35;;;;;;;23.73;15.05;;;;;;;4.24;73.24;93828.13;2069856;69;20239;-72
2021/12/13 08:58:15;;;;;;;33.42;17.77;;;;;;;4.44;72.70;93819.00;2071380;69;20152;-70
2021/12/13 09:00:55;;;;;;;27.88;16.45;;;;;;;4.82;71.35;93819.34;2071361;69;20639;-72
2021/12/13 09:03:35;;;;;;;29.45;15.15;;;;;;;5.09;71.44;93819.16;2070935;69;20618;-71
2021/12/13 09:06:14;;;;;;;23.70;13.05;;;;;;;5.18;70.79;93820.69;2071435;69;20208;-69
2021/12/13 09:09:14;;;;;;;25.77;15.30;;;;;;;4.62;71.62;93822.13;2071945;69;20129;-69
2021/12/13 09:11:45;;;;;;;22.92;13.27;;;;;;;4.99;70.65;93821.69;2053711;69;20221;-72
2021/12/13 09:14:16;;;;;;;19.92;11.13;;;;;;;5.01;69.84;93823.94;2054514;69;20154;-75
2021/12/13 09:17:07;;;;;;;38.33;20.70;;;;;;;5.16;69.82;93826.81;2054605;69;20146;-78
2021/12/13 09:19:49;;;;;;;27.30;17.15;;;;;;;5.30;68.96;93830.25;2053831;69;20166;-70
2021/12/13 09:22:30;;;;;;;22.30;14.02;;;;;;;5.26;69.01;93836.19;2053630;69;20166;-73
2021/12/13 09:24:55;;;;;;;24.35;13.93;;;;;;;5.39;68.18;93831.81;2053947;69;20152;-73
2021/12/13 09:27:45;;;;;;;24.40;14.43;;;;;;;5.10;69.17;93829.78;2054146;69;20146;-70
2021/12/13 09:30:11;;;;;;;26.38;14.32;;;;;;;5.16;68.31;93829.63;2054330;69;20249;-70
2021/12/13 09:32:51;;;;;;;24.02;15.05;;;;;;;4.95;69.20;93823.31;2054308;69;20268;-72
2021/12/13 09:35:26;;;;;;;22.08;13.95;;;;;;;5.31;68.58;93835.31;2054368;69;20181;-70
2021/12/13 09:37:53;;;;;;;25.52;14.55;;;;;;;5.27;68.98;93834.16;2054396;69;20158;-70
2021/12/13 09:40:28;;;;;;;26.00;13.98;;;;;;;5.40;68.65;93828.44;2054540;69;20146;-71
2021/12/13 09:42:56;;;;;;;23.52;13.30;;;;;;;5.41;67.81;93829.97;2054433;69;20138;-69
2021/12/13 09:45:27;;;;;;;23.08;13.23;;;;;;;5.92;71.25;93818.13;2054450;69;20148;-71
2021/12/13 09:47:53;;;;;;;22.42;11.80;;;;;;;6.13;68.77;93812.38;2067946;69;20200;-71
2021/12/13 09:50:23;;;;;;;33.25;19.00;;;;;;;6.49;68.71;93808.72;2071780;69;20168;-70
2021/12/13 09:52:51;;;;;;;24.10;14.88;;;;;;;6.35;66.66;93811.69;2071850;69;20167;-70
2021/12/13 09:55:26;;;;;;;25.05;15.73;;;;;;;6.09;67.76;93807.19;2071842;69;20140;-71
2021/12/13 09:58:04;;;;;;;21.08;12.77;;;;;;;6.81;66.99;93813.78;2071960;69;20497;-71
2021/12/13 10:00:53;;;;;;;20.50;12.70;;;;;;;7.48;66.31;93810.72;2071770;69;20552;-71
2021/12/13 10:03:33;;;;;;;19.40;12.45;;;;;;;7.70;64.30;93798.72;2063329;69;20164;-71
2021/12/13 10:06:03;;;;;;;23.42;13.98;;;;;;;7.51;62.39;93796.31;2071666;69;20140;-71
2021/12/13 10:08:49;;;;;;;21.17;13.50;;;;;;;7.36;63.20;93793.56;2071848;69;20216;-71
2021/12/13 10:11:22;;;;;;;15.68;10.38;;;;;;;6.11;65.08;93782.19;2071820;69;20160;-72
2021/12/13 10:13:48;;;;;;;16.02;10.02;;;;;;;7.03;64.87;93787.84;2071704;69;20144;-71
2021/12/13 10:16:20;;;;;;;15.70;9.45;;;;;;;7.32;63.22;93782.72;2071098;69;20179;-70
2021/12/13 10:18:50;;;;;;;12.20;9.52;;;;;;;6.91;64.28;93781.13;2071102;69;20159;-69
2021/12/13 10:21:30;;;;;;;15.52;9.75;;;;;;;6.94;63.38;93782.81;2071329;69;20182;-69
2021/12/13 10:24:02;;;;;;;15.70;9.88;;;;;;;7.98;63.59;93775.22;2071845;69;20600;-70
2021/12/13 10:26:32;;;;;;;16.52;10.75;;;;;;;8.66;61.56;93770.53;2071693;69;20623;-71
2021/12/13 10:29:02;;;;;;;15.32;10.82;;;;;;;9.48;60.25;93763.22;2071775;69;20210;-71
2021/12/13 10:31:32;;;;;;;17.02;10.25;;;;;;;9.51;58.50;93762.06;2068314;69;20599;-70
2021/12/13 10:33:59;;;;;;;17.48;11.38;;;;;;;9.07;58.46;93766.25;2071906;69;20133;-75
2021/12/13 10:36:28;;;;;;;12.50;9.48;;;;;;;9.36;57.10;93763.72;2071607;69;20152;-73
2021/12/13 10:38:59;;;;;;;14.55;9.30;;;;;;;9.56;57.38;93763.88;2071764;69;20254;-74
2021/12/13 10:41:35;;;;;;;14.88;10.55;;;;;;;9.84;56.39;93757.72;2071798;69;20195;-72
2021/12/13 10:44:06;;;;;;;12.38;9.07;;;;;;;10.08;54.07;93756.13;2071776;69;20197;-75
2021/12/13 10:46:36;;;;;;;12.48;9.38;;;;;;;10.35;54.74;93753.31;2071744;69;20152;-74
2021/12/13 10:49:07;;;;;;;14.02;9.40;;;;;;;12.03;51.47;93751.78;2068846;69;20206;-71
2021/12/13 10:51:37;;;;;;;15.63;9.43;;;;;;;12.60;49.97;93747.31;2068486;69;20140;-74
2021/12/13 10:54:08;;;;;;;12.50;8.52;;;;;;;12.88;48.88;93752.16;2071758;69;20156;-74
2021/12/13 10:56:40;;;;;;;13.27;9.40;;;;;;;12.91;46.88;93753.00;2071892;69;20640;-75
2021/12/13 10:59:10;;;;;;;13.98;9.63;;;;;;;14.51;46.24;93750.81;2071744;69;20148;-75
2021/12/13 11:01:40;;;;;;;54.80;29.38;;;;;;;15.21;42.94;93752.97;2071957;69;20132;-75
2021/12/13 11:04:09;;;;;;;52.00;26.45;;;;;;;14.48;43.64;93749.22;2071739;69;20143;-75
2021/12/13 11:06:38;;;;;;;29.35;15.77;;;;;;;13.37;44.12;93751.91;2071626;69;20190;-75
2021/12/13 11:09:08;;;;;;;29.27;15.88;;;;;;;11.27;47.33;93749.06;2071724;69;20138;-76
2021/12/13 11:11:40;;;;;;;26.80;17.63;;;;;;;10.89;48.42;93738.44;2071824;69;20229;-77
2021/12/13 11:14:09;;;;;;;26.83;18.52;;;;;;;11.24;48.73;93749.50;2071737;69;20148;-75
2021/12/13 11:16:39;;;;;;;31.73;17.55;;;;;;;10.76;49.55;93744.47;2071832;69;20158;-76
2021/12/13 11:19:07;;;;;;;21.73;15.13;;;;;;;10.34;49.85;93740.59;2071969;69;20156;-76
2021/12/13 11:21:36;;;;;;;19.83;13.27;;;;;;;9.53;52.01;93731.28;2071566;69;20606;-73
2021/12/13 11:24:06;;;;;;;20.23;13.77;;;;;;;9.70;52.09;93741.78;2071689;69;20151;-73
2021/12/13 11:26:34;;;;;;;24.15;17.20;;;;;;;9.41;53.28;93729.00;2071864;69;20596;-72
2021/12/13 11:29:02;;;;;;;33.15;22.70;;;;;;;8.54;54.79;93719.72;2071679;69;20136;-75
2021/12/13 11:31:30;;;;;;;30.85;19.75;;;;;;;8.10;56.26;93719.44;2071578;69;20267;-77
2021/12/13 11:34:03;;;;;;;30.98;15.98;;;;;;;8.04;56.41;93716.09;2071690;69;20145;-79
2021/12/13 11:36:59;;;;;;;19.08;13.85;;;;;;;8.36;57.24;93716.09;2071597;69;20230;-74
2021/12/13 11:39:57;;;;;;;23.65;16.40;;;;;;;8.35;56.39;93711.03;2071643;69;20152;-75
2021/12/13 11:43:07;;;;;;;32.17;21.15;;;;;;;8.26;56.92;93703.25;2071700;69;20218;-70
2021/12/13 11:46:06;;;;;;;28.85;20.35;;;;;;;8.20;56.43;93691.50;2071649;69;20228;-75
2021/12/13 11:48:49;;;;;;;28.80;17.65;;;;;;;7.99;57.43;93695.38;2071674;69;20180;-76
2021/12/13 11:51:37;;;;;;;29.73;20.00;;;;;;;7.43;58.75;93694.00;2071492;69;20152;-77
2021/12/13 11:54:11;;;;;;;30.65;20.25;;;;;;;7.66;59.10;93703.06;2071732;69;20148;-77
2021/12/13 11:57:14;;;;;;;23.83;13.65;;;;;;;7.60;58.50;93696.91;2071536;69;20167;-77
2021/12/13 12:00:17;;;;;;;17.90;12.60;;;;;;;7.59;58.57;93692.59;2071637;69;20144;-76
2021/12/13 12:03:31;;;;;;;19.23;13.30;;;;;;;7.62;58.69;93697.81;2068291;69;20149;-77
2021/12/13 12:06:37;;;;;;;20.88;13.68;;;;;;;8.00;58.75;93698.94;2062674;69;20168;-70
2021/12/13 12:09:22;;;;;;;22.05;15.93;;;;;;;7.80;58.73;93700.72;2065062;69;20214;-71
2021/12/13 12:12:09;;;;;;;50.40;33.75;;;;;;;7.93;60.14;93685.72;2064969;69;20164;-74
2021/12/13 12:14:35;;;;;;;43.25;28.60;;;;;;;8.06;58.85;93683.38;2064873;69;20232;-73